Terminal Aerodrome Forecast
Issued by NWS

Home | Current Version | Previous Version | Text Only | Print | Product List | Glossary On
Versions: 1 2 3 4 5 6 7 8 9 10 11 12 13 14 15 16 17 18 19
000
FTUS44 KBMX 251823 AAA
TAFTOI
TAF AMD
KTOI 251823Z 2518/2618 29005KT 6SM -RA SCT050 BKN100
     FM260100 00000KT P6SM BKN250
     FM260900 00000KT 3SM BR OVC004
     FM261300 34005KT P6SM SCT040=

USA.gov is the U.S. government's official web portal to all federal, state and local government web resources and services.